GB-0540 weather

Ballone Castle Airstrip
Scotland, United Kingdom

Public forecast

Using degrees Celsius for public forecast. Weather courtesy of forecast.io.

Closest aviation weather report (METAR) to Ballone Castle Airstrip

Closest report is RAF Kinloss, 13.5 nm (25.1 km) SE. Retrieved 2020/06/03 23:50 UTC (1 hour ago):

EGQK 032350Z AUTO 30008KT 9999 FEW050/// BKN140/// 09/04 Q1010

Closest aviation forecast (TAF) to Ballone Castle Airstrip

Forecast is more than 6 hours old.

Closest forecast is RAF Kinloss, 13.5 nm (25.1 km) SE. Retrieved 2020/06/03 18:57 UTC (6 hours ago):

TAF TAF EGQK 031751Z 0318/0412 CNL